sensor_id;sensor_type;location;lat;lon;timestamp;P1;durP1;ratioP1;P2;durP2;ratioP2
11100;SDS011;5604;50.722;7.078;2023-06-24T00:01:33;7.83;;;6.93;;
11100;SDS011;5604;50.722;7.078;2023-06-24T00:04:02;8.33;;;6.70;;
11100;SDS011;5604;50.722;7.078;2023-06-24T00:06:30;9.30;;;6.90;;
11100;SDS011;5604;50.722;7.078;2023-06-24T00:08:58;8.50;;;6.97;;
11100;SDS011;5604;50.722;7.078;2023-06-24T00:11:29;8.10;;;6.90;;
11100;SDS011;5604;50.722;7.078;2023-06-24T00:13:57;9.30;;;6.93;;
11100;SDS011;5604;50.722;7.078;2023-06-24T00:16:26;8.17;;;7.30;;
11100;SDS011;5604;50.722;7.078;2023-06-24T00:18:54;8.90;;;8.00;;
11100;SDS011;5604;50.722;7.078;2023-06-24T00:21:24;9.03;;;7.60;;
11100;SDS011;5604;50.722;7.078;2023-06-24T00:23:56;7.83;;;7.03;;
11100;SDS011;5604;50.722;7.078;2023-06-24T00:26:24;7.93;;;7.13;;
11100;SDS011;5604;50.722;7.078;2023-06-24T00:28:54;9.37;;;7.23;;
11100;SDS011;5604;50.722;7.078;2023-06-24T00:31:22;7.93;;;7.23;;
11100;SDS011;5604;50.722;7.078;2023-06-24T00:33:50;8.90;;;8.00;;
11100;SDS011;5604;50.722;7.078;2023-06-24T00:36:20;8.37;;;7.47;;
11100;SDS011;5604;50.722;7.078;2023-06-24T00:38:48;8.87;;;7.17;;
11100;SDS011;5604;50.722;7.078;2023-06-24T00:41:16;8.00;;;7.20;;
11100;SDS011;5604;50.722;7.078;2023-06-24T00:43:46;8.53;;;7.17;;
11100;SDS011;5604;50.722;7.078;2023-06-24T00:46:15;7.77;;;7.03;;
11100;SDS011;5604;50.722;7.078;2023-06-24T00:48:46;9.07;;;7.43;;
11100;SDS011;5604;50.722;7.078;2023-06-24T00:51:14;8.53;;;7.27;;
11100;SDS011;5604;50.722;7.078;2023-06-24T00:53:42;8.23;;;7.43;;
11100;SDS011;5604;50.722;7.078;2023-06-24T00:56:10;10.67;;;7.13;;
11100;SDS011;5604;50.722;7.078;2023-06-24T00:58:40;7.63;;;6.93;;
11100;SDS011;5604;50.722;7.078;2023-06-24T01:01:09;8.23;;;7.43;;
11100;SDS011;5604;50.722;7.078;2023-06-24T01:03:39;8.57;;;7.67;;
11100;SDS011;5604;50.722;7.078;2023-06-24T01:06:09;7.83;;;7.03;;
11100;SDS011;5604;50.722;7.078;2023-06-24T01:08:37;8.00;;;7.10;;
11100;SDS011;5604;50.722;7.078;2023-06-24T01:11:05;7.67;;;6.87;;
11100;SDS011;5604;50.722;7.078;2023-06-24T01:13:34;7.73;;;7.07;;
11100;SDS011;5604;50.722;7.078;2023-06-24T01:16:02;8.93;;;7.60;;
11100;SDS011;5604;50.722;7.078;2023-06-24T01:18:38;7.57;;;6.80;;
11100;SDS011;5604;50.722;7.078;2023-06-24T01:21:14;8.93;;;7.30;;
11100;SDS011;5604;50.722;7.078;2023-06-24T01:24:02;7.93;;;7.10;;
11100;SDS011;5604;50.722;7.078;2023-06-24T01:30:11;6.87;;;6.30;;
11100;SDS011;5604;50.722;7.078;2023-06-24T01:32:48;7.43;;;6.80;;
11100;SDS011;5604;50.722;7.078;2023-06-24T01:35:20;7.10;;;6.50;;
11100;SDS011;5604;50.722;7.078;2023-06-24T01:37:51;7.67;;;6.60;;
11100;SDS011;5604;50.722;7.078;2023-06-24T01:40:20;9.83;;;6.97;;
11100;SDS011;5604;50.722;7.078;2023-06-24T01:42:52;8.40;;;7.53;;
11100;SDS011;5604;50.722;7.078;2023-06-24T01:45:22;8.27;;;6.83;;
11100;SDS011;5604;50.722;7.078;2023-06-24T01:47:54;7.87;;;7.17;;
11100;SDS011;5604;50.722;7.078;2023-06-24T01:50:28;7.83;;;6.93;;
11100;SDS011;5604;50.722;7.078;2023-06-24T01:52:58;8.07;;;7.23;;
11100;SDS011;5604;50.722;7.078;2023-06-24T01:55:27;8.10;;;6.77;;
11100;SDS011;5604;50.722;7.078;2023-06-24T01:57:56;7.57;;;6.83;;
11100;SDS011;5604;50.722;7.078;2023-06-24T02:00:25;7.33;;;6.63;;
11100;SDS011;5604;50.722;7.078;2023-06-24T02:02:55;8.23;;;7.00;;
11100;SDS011;5604;50.722;7.078;2023-06-24T02:05:23;8.03;;;7.23;;
11100;SDS011;5604;50.722;7.078;2023-06-24T02:07:52;10.20;;;7.23;;
11100;SDS011;5604;50.722;7.078;2023-06-24T02:10:22;8.20;;;7.40;;
11100;SDS011;5604;50.722;7.078;2023-06-24T02:12:51;8.30;;;7.47;;
11100;SDS011;5604;50.722;7.078;2023-06-24T02:15:20;8.40;;;7.50;;
11100;SDS011;5604;50.722;7.078;2023-06-24T02:17:49;8.37;;;7.20;;
11100;SDS011;5604;50.722;7.078;2023-06-24T02:20:20;10.70;;;7.60;;
11100;SDS011;5604;50.722;7.078;2023-06-24T02:22:53;7.87;;;7.17;;
11100;SDS011;5604;50.722;7.078;2023-06-24T02:25:22;8.03;;;7.33;;
11100;SDS011;5604;50.722;7.078;2023-06-24T02:27:51;8.43;;;7.57;;
11100;SDS011;5604;50.722;7.078;2023-06-24T02:30:19;8.00;;;7.30;;
11100;SDS011;5604;50.722;7.078;2023-06-24T02:32:48;9.20;;;6.40;;
11100;SDS011;5604;50.722;7.078;2023-06-24T02:35:16;7.40;;;6.70;;
11100;SDS011;5604;50.722;7.078;2023-06-24T02:37:46;8.10;;;7.27;;
11100;SDS011;5604;50.722;7.078;2023-06-24T02:40:15;8.20;;;6.30;;
11100;SDS011;5604;50.722;7.078;2023-06-24T02:42:43;7.60;;;6.90;;
11100;SDS011;5604;50.722;7.078;2023-06-24T02:45:12;7.03;;;6.30;;
11100;SDS011;5604;50.722;7.078;2023-06-24T02:47:40;7.60;;;6.73;;
11100;SDS011;5604;50.722;7.078;2023-06-24T02:50:10;7.53;;;6.63;;
11100;SDS011;5604;50.722;7.078;2023-06-24T02:52:39;7.30;;;6.57;;
11100;SDS011;5604;50.722;7.078;2023-06-24T02:55:11;8.03;;;7.23;;
11100;SDS011;5604;50.722;7.078;2023-06-24T02:57:45;7.40;;;6.70;;
11100;SDS011;5604;50.722;7.078;2023-06-24T03:00:32;8.20;;;7.13;;
11100;SDS011;5604;50.722;7.078;2023-06-24T03:03:10;9.93;;;7.60;;
11100;SDS011;5604;50.722;7.078;2023-06-24T03:05:53;10.53;;;7.57;;
11100;SDS011;5604;50.722;7.078;2023-06-24T03:08:25;8.93;;;7.20;;
11100;SDS011;5604;50.722;7.078;2023-06-24T03:10:57;8.30;;;7.50;;
11100;SDS011;5604;50.722;7.078;2023-06-24T03:13:28;7.87;;;7.17;;
11100;SDS011;5604;50.722;7.078;2023-06-24T03:16:02;8.47;;;7.17;;
11100;SDS011;5604;50.722;7.078;2023-06-24T03:18:40;8.40;;;7.30;;
11100;SDS011;5604;50.722;7.078;2023-06-24T03:21:08;8.47;;;7.13;;
11100;SDS011;5604;50.722;7.078;2023-06-24T03:23:38;9.47;;;7.50;;
11100;SDS011;5604;50.722;7.078;2023-06-24T03:26:11;8.70;;;7.90;;
11100;SDS011;5604;50.722;7.078;2023-06-24T03:28:41;8.67;;;7.30;;
11100;SDS011;5604;50.722;7.078;2023-06-24T03:31:14;7.83;;;7.13;;
11100;SDS011;5604;50.722;7.078;2023-06-24T03:33:42;9.00;;;7.63;;
11100;SDS011;5604;50.722;7.078;2023-06-24T03:36:13;7.50;;;6.80;;
11100;SDS011;5604;50.722;7.078;2023-06-24T03:38:42;9.07;;;7.50;;
11100;SDS011;5604;50.722;7.078;2023-06-24T03:41:12;8.60;;;7.00;;
11100;SDS011;5604;50.722;7.078;2023-06-24T03:43:40;8.57;;;7.30;;
11100;SDS011;5604;50.722;7.078;2023-06-24T03:46:10;7.87;;;6.90;;
11100;SDS011;5604;50.722;7.078;2023-06-24T03:48:38;7.97;;;7.17;;
11100;SDS011;5604;50.722;7.078;2023-06-24T03:51:07;9.03;;;7.53;;
11100;SDS011;5604;50.722;7.078;2023-06-24T03:53:36;8.77;;;7.77;;
11100;SDS011;5604;50.722;7.078;2023-06-24T03:56:05;11.17;;;6.80;;
11100;SDS011;5604;50.722;7.078;2023-06-24T03:58:34;8.63;;;7.37;;
11100;SDS011;5604;50.722;7.078;2023-06-24T04:01:02;7.53;;;6.77;;
11100;SDS011;5604;50.722;7.078;2023-06-24T04:03:30;8.07;;;7.33;;
11100;SDS011;5604;50.722;7.078;2023-06-24T04:05:59;8.13;;;7.10;;
11100;SDS011;5604;50.722;7.078;2023-06-24T04:08:28;8.57;;;7.03;;
11100;SDS011;5604;50.722;7.078;2023-06-24T04:10:56;8.13;;;7.40;;
11100;SDS011;5604;50.722;7.078;2023-06-24T04:13:26;8.10;;;7.30;;
11100;SDS011;5604;50.722;7.078;2023-06-24T04:15:55;8.70;;;7.60;;
11100;SDS011;5604;50.722;7.078;2023-06-24T04:18:24;8.00;;;6.97;;
11100;SDS011;5604;50.722;7.078;2023-06-24T04:20:53;8.17;;;7.37;;
11100;SDS011;5604;50.722;7.078;2023-06-24T04:23:21;8.30;;;7.50;;
11100;SDS011;5604;50.722;7.078;2023-06-24T04:25:50;9.40;;;7.90;;
11100;SDS011;5604;50.722;7.078;2023-06-24T04:28:20;7.50;;;6.70;;
11100;SDS011;5604;50.722;7.078;2023-06-24T04:30:49;9.13;;;7.80;;
11100;SDS011;5604;50.722;7.078;2023-06-24T04:33:19;8.13;;;7.43;;
11100;SDS011;5604;50.722;7.078;2023-06-24T04:35:48;8.00;;;7.20;;
11100;SDS011;5604;50.722;7.078;2023-06-24T04:38:18;8.50;;;6.47;;
11100;SDS011;5604;50.722;7.078;2023-06-24T04:40:47;9.03;;;7.17;;
11100;SDS011;5604;50.722;7.078;2023-06-24T04:43:15;8.27;;;7.00;;
11100;SDS011;5604;50.722;7.078;2023-06-24T04:45:43;8.23;;;7.43;;
11100;SDS011;5604;50.722;7.078;2023-06-24T04:48:11;9.00;;;7.80;;
11100;SDS011;5604;50.722;7.078;2023-06-24T04:50:41;8.33;;;7.20;;
11100;SDS011;5604;50.722;7.078;2023-06-24T04:53:09;8.20;;;7.40;;
11100;SDS011;5604;50.722;7.078;2023-06-24T04:55:37;7.83;;;7.03;;
11100;SDS011;5604;50.722;7.078;2023-06-24T04:58:05;8.23;;;7.50;;
11100;SDS011;5604;50.722;7.078;2023-06-24T05:00:33;7.50;;;6.80;;
11100;SDS011;5604;50.722;7.078;2023-06-24T05:03:01;9.77;;;6.20;;
11100;SDS011;5604;50.722;7.078;2023-06-24T05:05:29;7.67;;;6.87;;
11100;SDS011;5604;50.722;7.078;2023-06-24T05:08:03;6.40;;;5.80;;
11100;SDS011;5604;50.722;7.078;2023-06-24T05:10:31;7.70;;;6.20;;
11100;SDS011;5604;50.722;7.078;2023-06-24T05:12:59;6.33;;;5.73;;
11100;SDS011;5604;50.722;7.078;2023-06-24T05:15:27;6.57;;;5.83;;
11100;SDS011;5604;50.722;7.078;2023-06-24T05:17:56;5.47;;;4.97;;
11100;SDS011;5604;50.722;7.078;2023-06-24T05:20:24;6.03;;;5.17;;
11100;SDS011;5604;50.722;7.078;2023-06-24T05:22:54;6.40;;;5.80;;
11100;SDS011;5604;50.722;7.078;2023-06-24T05:25:24;6.87;;;5.20;;
11100;SDS011;5604;50.722;7.078;2023-06-24T05:27:53;5.63;;;5.13;;
11100;SDS011;5604;50.722;7.078;2023-06-24T05:30:21;6.40;;;5.80;;
11100;SDS011;5604;50.722;7.078;2023-06-24T05:32:49;5.77;;;5.20;;
11100;SDS011;5604;50.722;7.078;2023-06-24T05:35:17;6.03;;;5.40;;
11100;SDS011;5604;50.722;7.078;2023-06-24T05:37:45;7.40;;;5.17;;
11100;SDS011;5604;50.722;7.078;2023-06-24T05:40:13;5.80;;;5.30;;
11100;SDS011;5604;50.722;7.078;2023-06-24T05:42:43;4.90;;;4.50;;
11100;SDS011;5604;50.722;7.078;2023-06-24T05:45:11;5.87;;;5.30;;
11100;SDS011;5604;50.722;7.078;2023-06-24T05:47:39;5.47;;;4.97;;
11100;SDS011;5604;50.722;7.078;2023-06-24T05:50:09;6.30;;;5.10;;
11100;SDS011;5604;50.722;7.078;2023-06-24T05:52:37;7.43;;;5.73;;
11100;SDS011;5604;50.722;7.078;2023-06-24T05:55:05;7.83;;;5.03;;
11100;SDS011;5604;50.722;7.078;2023-06-24T05:57:34;6.73;;;5.10;;
11100;SDS011;5604;50.722;7.078;2023-06-24T06:00:04;6.83;;;5.10;;
11100;SDS011;5604;50.722;7.078;2023-06-24T06:02:42;8.20;;;5.07;;
11100;SDS011;5604;50.722;7.078;2023-06-24T06:05:10;7.00;;;5.10;;
11100;SDS011;5604;50.722;7.078;2023-06-24T06:07:38;5.30;;;4.80;;
11100;SDS011;5604;50.722;7.078;2023-06-24T06:10:07;5.53;;;4.90;;
11100;SDS011;5604;50.722;7.078;2023-06-24T06:12:35;5.27;;;4.77;;
11100;SDS011;5604;50.722;7.078;2023-06-24T06:15:05;6.73;;;4.37;;
11100;SDS011;5604;50.722;7.078;2023-06-24T06:17:34;5.53;;;5.00;;
11100;SDS011;5604;50.722;7.078;2023-06-24T06:20:02;7.83;;;4.67;;
11100;SDS011;5604;50.722;7.078;2023-06-24T06:22:31;5.73;;;5.03;;
11100;SDS011;5604;50.722;7.078;2023-06-24T06:25:04;7.10;;;4.67;;
11100;SDS011;5604;50.722;7.078;2023-06-24T06:27:33;7.23;;;5.00;;
11100;SDS011;5604;50.722;7.078;2023-06-24T06:30:01;6.40;;;4.93;;
11100;SDS011;5604;50.722;7.078;2023-06-24T06:32:32;5.80;;;5.30;;
11100;SDS011;5604;50.722;7.078;2023-06-24T06:35:00;5.50;;;5.00;;
11100;SDS011;5604;50.722;7.078;2023-06-24T06:37:31;8.10;;;5.07;;
11100;SDS011;5604;50.722;7.078;2023-06-24T06:39:59;6.63;;;5.37;;
11100;SDS011;5604;50.722;7.078;2023-06-24T06:42:28;5.97;;;5.30;;
11100;SDS011;5604;50.722;7.078;2023-06-24T06:44:56;6.00;;;5.40;;
11100;SDS011;5604;50.722;7.078;2023-06-24T06:47:24;8.03;;;5.90;;
11100;SDS011;5604;50.722;7.078;2023-06-24T06:49:54;6.63;;;5.67;;
11100;SDS011;5604;50.722;7.078;2023-06-24T06:52:22;6.17;;;5.57;;
11100;SDS011;5604;50.722;7.078;2023-06-24T06:54:50;6.80;;;6.13;;
11100;SDS011;5604;50.722;7.078;2023-06-24T06:57:18;8.23;;;6.27;;
11100;SDS011;5604;50.722;7.078;2023-06-24T06:59:46;7.30;;;6.60;;
11100;SDS011;5604;50.722;7.078;2023-06-24T07:02:16;7.53;;;6.60;;
11100;SDS011;5604;50.722;7.078;2023-06-24T07:04:44;10.77;;;7.10;;
11100;SDS011;5604;50.722;7.078;2023-06-24T07:07:15;9.17;;;6.87;;
11100;SDS011;5604;50.722;7.078;2023-06-24T07:09:44;9.20;;;6.70;;
11100;SDS011;5604;50.722;7.078;2023-06-24T07:12:13;9.70;;;7.20;;
11100;SDS011;5604;50.722;7.078;2023-06-24T07:14:41;7.33;;;6.50;;
11100;SDS011;5604;50.722;7.078;2023-06-24T07:17:09;11.03;;;8.57;;
11100;SDS011;5604;50.722;7.078;2023-06-24T07:19:37;9.23;;;8.20;;
11100;SDS011;5604;50.722;7.078;2023-06-24T07:22:05;8.00;;;7.20;;
11100;SDS011;5604;50.722;7.078;2023-06-24T07:24:34;8.47;;;7.17;;
11100;SDS011;5604;50.722;7.078;2023-06-24T07:27:02;7.57;;;6.67;;
11100;SDS011;5604;50.722;7.078;2023-06-24T07:29:31;7.03;;;6.33;;
11100;SDS011;5604;50.722;7.078;2023-06-24T07:31:59;8.90;;;7.50;;
11100;SDS011;5604;50.722;7.078;2023-06-24T07:34:28;9.27;;;7.20;;
11100;SDS011;5604;50.722;7.078;2023-06-24T07:36:56;10.47;;;7.20;;
11100;SDS011;5604;50.722;7.078;2023-06-24T07:39:31;9.47;;;7.63;;
11100;SDS011;5604;50.722;7.078;2023-06-24T07:42:00;9.43;;;8.07;;
11100;SDS011;5604;50.722;7.078;2023-06-24T07:44:28;11.57;;;7.43;;
11100;SDS011;5604;50.722;7.078;2023-06-24T07:46:56;10.73;;;7.87;;
11100;SDS011;5604;50.722;7.078;2023-06-24T07:49:25;23.77;;;12.93;;
11100;SDS011;5604;50.722;7.078;2023-06-24T07:51:53;10.33;;;7.07;;
11100;SDS011;5604;50.722;7.078;2023-06-24T07:54:21;8.50;;;7.10;;
11100;SDS011;5604;50.722;7.078;2023-06-24T07:56:49;12.20;;;7.40;;
11100;SDS011;5604;50.722;7.078;2023-06-24T07:59:19;9.37;;;7.27;;
11100;SDS011;5604;50.722;7.078;2023-06-24T08:01:47;12.07;;;6.33;;
11100;SDS011;5604;50.722;7.078;2023-06-24T08:04:15;8.37;;;6.90;;
11100;SDS011;5604;50.722;7.078;2023-06-24T08:06:43;8.10;;;7.30;;
